Time;durP1;ratioP1;P1;durP2;ratioP2;P2;SDS_P1;SDS_P2;PMS_P1;PMS_P2;Temp;Humidity;BMP_temperature;BMP_pressure;BME280_temperature;BME280_humidity;BME280_pressure;Samples;Min_cycle;Max_cycle;Signal;HPM_P1;HPM_P2
2021/10/30 00:01:22;;;;;;;;;19.75;17.75;;;;;15.14;72.36;100164.44;4955811;28;47047;-82
2021/10/30 00:03:48;;;;;;;;;20.25;18.75;;;;;15.18;72.38;100165.97;4966149;28;45306;-82
2021/10/30 00:06:14;;;;;;;;;18.75;17.50;;;;;15.18;72.33;100173.91;4962251;28;45220;-82
2021/10/30 00:08:39;;;;;;;;;21.50;17.50;;;;;15.17;72.67;100164.25;4961291;28;45355;-82
2021/10/30 00:11:05;;;;;;;;;23.50;20.00;;;;;15.18;72.40;100162.47;4961641;28;45346;-82
2021/10/30 00:13:30;;;;;;;;;16.50;16.50;;;;;15.19;72.28;100158.84;4961004;28;45336;-83
2021/10/30 00:15:57;;;;;;;;;19.50;17.75;;;;;15.20;72.44;100163.22;4961839;28;45660;-83
2021/10/30 00:18:22;;;;;;;;;21.75;16.25;;;;;15.21;72.46;100156.13;4942684;28;45533;-83
2021/10/30 00:20:48;;;;;;;;;25.00;18.00;;;;;15.20;72.33;100149.97;4961626;28;45540;-83
2021/10/30 00:23:14;;;;;;;;;18.25;18.00;;;;;15.22;72.54;100148.06;4966073;28;45431;-83
2021/10/30 00:25:39;;;;;;;;;17.00;16.00;;;;;15.22;72.46;100133.97;4951685;28;45308;-82
2021/10/30 00:28:05;;;;;;;;;22.00;18.00;;;;;15.22;72.29;100139.28;4960423;28;45388;-82
2021/10/30 00:30:30;;;;;;;;;18.00;14.50;;;;;15.22;72.58;100126.03;4961653;28;45212;-82
2021/10/30 00:32:55;;;;;;;;;19.50;17.25;;;;;15.23;72.16;100127.75;4961028;28;46618;-81
2021/10/30 00:35:21;;;;;;;;;16.50;16.00;;;;;15.22;72.44;100126.91;4961746;28;45435;-82
2021/10/30 00:37:46;;;;;;;;;21.25;17.00;;;;;15.22;72.51;100124.25;4960287;28;45222;-82
2021/10/30 00:40:12;;;;;;;;;22.25;17.75;;;;;15.24;72.37;100126.78;4969710;28;45469;-82
2021/10/30 00:42:41;;;;;;;;;15.50;14.75;;;;;15.22;72.40;100124.25;4965582;28;46415;-82
2021/10/30 00:45:08;;;;;;;;;18.00;12.50;;;;;15.23;72.41;100114.53;4961552;28;45363;-83
2021/10/30 00:47:33;;;;;;;;;17.50;14.75;;;;;15.21;72.76;100114.59;4959450;28;45353;-84
2021/10/30 00:50:04;;;;;;;;;17.75;16.50;;;;;15.24;72.52;100121.50;4969071;28;45282;-85
2021/10/30 00:52:30;;;;;;;;;16.75;14.50;;;;;15.22;72.68;100116.31;4947732;28;46249;-84
2021/10/30 00:54:58;;;;;;;;;15.50;14.25;;;;;15.23;72.67;100107.44;4961257;28;45271;-83
2021/10/30 00:57:28;;;;;;;;;15.75;15.25;;;;;15.23;72.41;100109.22;4965390;28;45538;-83
2021/10/30 00:59:55;;;;;;;;;16.50;15.00;;;;;15.25;72.58;100100.25;4967784;28;45432;-83
2021/10/30 01:02:24;;;;;;;;;13.50;12.50;;;;;15.25;72.75;100097.59;4951977;28;47697;-83
2021/10/30 01:04:50;;;;;;;;;11.75;11.00;;;;;15.27;72.81;100085.09;4960994;28;45234;-83
2021/10/30 01:07:16;;;;;;;;;17.50;13.75;;;;;15.25;72.57;100089.66;4943433;28;45242;-83
2021/10/30 01:09:41;;;;;;;;;18.75;15.50;;;;;15.26;72.79;100086.03;4950518;28;47349;-83
2021/10/30 01:12:08;;;;;;;;;18.00;13.50;;;;;15.27;72.77;100087.75;4965121;28;46730;-83
2021/10/30 01:14:35;;;;;;;;;12.00;11.50;;;;;15.28;72.43;100076.19;4972462;28;45660;-82
2021/10/30 01:17:05;;;;;;;;;16.25;12.00;;;;;15.28;72.97;100078.03;4960952;28;45397;-82
2021/10/30 01:19:32;;;;;;;;;12.50;12.25;;;;;15.30;72.71;100078.78;4943744;28;45292;-82
2021/10/30 01:21:59;;;;;;;;;15.25;14.25;;;;;15.30;72.65;100076.97;4940288;28;45428;-83
2021/10/30 01:24:24;;;;;;;;;15.50;11.25;;;;;15.33;72.80;100077.72;4946724;28;45478;-82
2021/10/30 01:26:50;;;;;;;;;11.25;11.25;;;;;15.32;72.80;100071.56;4933574;28;45438;-82
2021/10/30 01:29:16;;;;;;;;;12.50;9.00;;;;;15.32;72.66;100062.78;4941376;28;45436;-82
2021/10/30 01:31:41;;;;;;;;;11.00;10.75;;;;;15.33;72.91;100061.84;4940959;28;46254;-82
2021/10/30 01:34:09;;;;;;;;;14.25;11.00;;;;;15.33;72.70;100056.53;4941550;28;45377;-82
2021/10/30 01:36:36;;;;;;;;;11.25;10.75;;;;;15.33;72.60;100051.25;4924402;28;45421;-82
2021/10/30 01:39:07;;;;;;;;;10.50;9.75;;;;;15.34;73.07;100059.09;4941363;28;45304;-82
2021/10/30 01:41:33;;;;;;;;;8.75;8.25;;;;;15.35;72.53;100055.50;4941351;28;46144;-82
2021/10/30 01:43:58;;;;;;;;;15.00;12.75;;;;;15.34;73.08;100047.63;4939983;28;45806;-81
2021/10/30 01:46:25;;;;;;;;;15.25;11.75;;;;;15.36;73.02;100040.47;4947926;28;45451;-84
2021/10/30 01:48:51;;;;;;;;;14.00;10.25;;;;;15.35;72.98;100036.09;4940859;28;45320;-80
2021/10/30 01:51:17;;;;;;;;;14.00;12.50;;;;;15.37;72.88;100037.72;4942871;28;45409;-81
2021/10/30 01:53:43;;;;;;;;;14.00;10.50;;;;;15.38;72.99;100027.97;4944590;28;45267;-80
2021/10/30 01:56:09;;;;;;;;;11.25;9.50;;;;;15.40;73.13;100028.72;4945082;28;45176;-80
2021/10/30 01:58:36;;;;;;;;;10.50;9.00;;;;;15.37;73.12;100020.97;4944409;28;45456;-80
2021/10/30 02:01:02;;;;;;;;;14.75;11.25;;;;;15.39;72.98;100011.13;4944440;28;46331;-80
2021/10/30 02:03:30;;;;;;;;;16.00;14.25;;;;;15.41;72.96;100009.22;4951000;28;45444;-84
2021/10/30 02:05:56;;;;;;;;;13.50;13.50;;;;;15.40;73.08;99994.31;4927264;28;45289;-83
2021/10/30 02:08:21;;;;;;;;;11.75;11.00;;;;;15.39;73.33;99993.44;4942572;28;45210;-83
2021/10/30 02:10:47;;;;;;;;;14.25;13.00;;;;;15.40;73.28;99989.84;4957168;28;47242;-84
2021/10/30 02:13:13;;;;;;;;;11.25;9.75;;;;;15.41;73.06;99988.88;4930777;28;45631;-83
2021/10/30 02:15:38;;;;;;;;;15.25;12.25;;;;;15.41;72.92;99980.09;4933383;28;45445;-83
2021/10/30 02:18:05;;;;;;;;;14.00;13.25;;;;;15.43;72.63;99972.91;4943380;28;45354;-82
2021/10/30 02:20:30;;;;;;;;;12.75;11.00;;;;;15.46;73.02;99972.69;4943881;28;46755;-81
2021/10/30 02:22:56;;;;;;;;;15.50;14.00;;;;;15.44;73.03;99964.00;4943025;28;45364;-81
2021/10/30 02:25:21;;;;;;;;;15.75;13.00;;;;;15.45;72.99;99962.22;4943985;28;45698;-85
2021/10/30 02:27:47;;;;;;;;;10.50;10.50;;;;;15.46;72.72;99959.44;4943974;28;45529;-85
2021/10/30 02:30:13;;;;;;;;;14.75;11.25;;;;;15.48;73.04;99954.91;4942684;28;48139;-86
2021/10/30 02:32:38;;;;;;;;;12.75;10.00;;;;;15.47;73.05;99947.94;4942206;28;45274;-85
2021/10/30 02:35:04;;;;;;;;;14.25;14.25;;;;;15.49;73.14;99956.63;4947960;28;45416;-85
2021/10/30 02:37:29;;;;;;;;;13.25;9.75;;;;;15.48;72.97;99946.13;4959642;28;45172;-83
2021/10/30 02:39:55;;;;;;;;;14.75;12.50;;;;;15.48;72.96;99946.13;4930389;28;47079;-83
2021/10/30 02:42:20;;;;;;;;;13.50;11.50;;;;;15.46;72.94;99932.97;4942020;28;45717;-83
2021/10/30 02:44:45;;;;;;;;;16.25;14.25;;;;;15.47;72.96;99931.19;4926792;28;45300;-84
2021/10/30 02:47:11;;;;;;;;;13.75;11.75;;;;;15.47;73.26;99932.03;4925632;28;45793;-83
2021/10/30 02:49:37;;;;;;;;;14.50;13.00;;;;;15.47;73.13;99929.38;4943627;28;46363;-84
2021/10/30 02:52:03;;;;;;;;;17.00;12.75;;;;;15.47;72.83;99918.78;4925534;28;47031;-84
2021/10/30 02:54:28;;;;;;;;;15.75;13.00;;;;;15.46;72.91;99916.25;4943567;28;45231;-84
2021/10/30 02:56:54;;;;;;;;;14.00;13.75;;;;;15.46;72.96;99917.09;4945991;28;45385;-81
2021/10/30 02:59:19;;;;;;;;;9.50;9.50;;;;;15.46;72.93;99911.78;4944849;28;45564;-82
2021/10/30 03:01:45;;;;;;;;;11.50;11.50;;;;;15.47;72.66;99904.69;4945533;28;45381;-81
2021/10/30 03:04:10;;;;;;;;;17.25;11.75;;;;;15.49;72.97;99908.94;4943789;28;45504;-81
2021/10/30 03:06:36;;;;;;;;;17.75;15.00;;;;;15.47;72.95;99900.25;4943541;28;47120;-81
2021/10/30 03:09:03;;;;;;;;;14.00;13.00;;;;;15.47;72.95;99894.97;4943068;28;46816;-81
2021/10/30 03:11:28;;;;;;;;;14.75;11.50;;;;;15.47;72.95;99883.50;4946008;28;45413;-82
2021/10/30 03:13:54;;;;;;;;;14.25;12.25;;;;;15.47;72.92;99875.56;4943405;28;45693;-82
2021/10/30 03:16:19;;;;;;;;;13.75;11.50;;;;;15.48;73.05;99875.47;4925771;28;45264;-83
2021/10/30 03:18:45;;;;;;;;;15.50;14.50;;;;;15.45;72.91;99859.81;4936289;28;47309;-83
2021/10/30 03:21:10;;;;;;;;;13.25;13.25;;;;;15.46;73.02;99856.19;4961888;28;45191;-83
2021/10/30 03:23:36;;;;;;;;;11.50;10.50;;;;;15.47;72.67;99851.75;4962964;28;45429;-87
2021/10/30 03:26:02;;;;;;;;;13.00;13.00;;;;;15.44;72.57;99842.19;4961592;28;45465;-89
2021/10/30 03:28:28;;;;;;;;;14.25;12.25;;;;;15.42;72.96;99846.75;4962702;28;45262;-86
2021/10/30 03:30:53;;;;;;;;;15.00;13.50;;;;;15.42;72.59;99838.81;4962957;28;45444;-86
2021/10/30 03:33:19;;;;;;;;;14.25;12.25;;;;;15.40;72.85;99841.59;4947711;28;45182;-87
2021/10/30 03:35:44;;;;;;;;;13.75;11.25;;;;;15.40;72.75;99838.94;4952283;28;46174;-83
2021/10/30 03:38:09;;;;;;;;;14.00;11.00;;;;;15.42;72.81;99844.13;4960850;28;46083;-82
2021/10/30 03:40:35;;;;;;;;;14.25;12.25;;;;;15.39;72.93;99834.56;4968271;28;45475;-82
2021/10/30 03:43:00;;;;;;;;;12.50;11.00;;;;;15.38;72.86;99832.03;4945537;28;45387;-82
2021/10/30 03:45:26;;;;;;;;;12.00;12.00;;;;;15.39;72.80;99817.84;4971015;28;45491;-87
2021/10/30 03:47:51;;;;;;;;;15.00;14.50;;;;;15.39;72.70;99818.69;4965823;28;45402;-88
2021/10/30 03:50:17;;;;;;;;;10.50;10.50;;;;;15.37;72.68;99820.59;4961156;28;45369;-83
2021/10/30 03:52:42;;;;;;;;;16.75;12.75;;;;;15.37;72.84;99822.41;4962436;28;45497;-84
2021/10/30 03:55:08;;;;;;;;;12.25;12.25;;;;;15.36;72.68;99818.06;4961205;28;45925;-89
2021/10/30 03:57:33;;;;;;;;;19.00;15.75;;;;;15.36;72.77;99818.88;4943900;28;47785;-90
2021/10/30 03:59:59;;;;;;;;;10.75;10.00;;;;;15.35;72.81;99811.06;4974367;28;45463;-89
2021/10/30 04:02:24;;;;;;;;;13.75;13.25;;;;;15.35;72.85;99819.00;4950847;28;45322;-89
2021/10/30 04:04:50;;;;;;;;;14.25;13.75;;;;;15.34;72.86;99814.66;4961811;28;45428;-89
2021/10/30 04:07:15;;;;;;;;;11.00;11.00;;;;;15.33;72.70;99819.13;4961750;28;45377;-89
2021/10/30 04:09:41;;;;;;;;;11.25;11.25;;;;;15.34;72.74;99804.91;4961940;28;45218;-91
2021/10/30 04:12:06;;;;;;;;;11.75;10.00;;;;;15.33;72.71;99807.69;4961790;28;45155;-87
2021/10/30 04:14:32;;;;;;;;;10.25;9.25;;;;;15.32;72.65;99804.19;4961537;28;45262;-86
2021/10/30 04:16:57;;;;;;;;;11.50;9.50;;;;;15.33;72.56;99800.59;4976481;28;48191;-91
2021/10/30 04:19:23;;;;;;;;;9.75;9.75;;;;;15.33;72.87;99803.25;4976604;28;45243;-91
2021/10/30 04:21:48;;;;;;;;;8.25;8.00;;;;;15.34;72.74;99806.72;4961787;28;45240;-90
2021/10/30 04:24:13;;;;;;;;;11.00;10.75;;;;;15.33;72.84;99799.75;4955541;28;45648;-90
2021/10/30 04:26:39;;;;;;;;;10.50;10.50;;;;;15.34;72.90;99810.22;4968434;28;47605;-91
2021/10/30 04:29:05;;;;;;;;;8.25;8.25;;;;;15.35;73.07;99811.06;4961571;28;45464;-90
2021/10/30 04:31:31;;;;;;;;;11.00;11.00;;;;;15.34;72.70;99820.81;4944685;28;45261;-86
2021/10/30 04:34:00;;;;;;;;;9.50;9.50;;;;;15.33;72.90;99818.28;4961917;28;45460;-89
2021/10/30 04:36:28;;;;;;;;;10.50;10.50;;;;;15.35;72.91;99816.38;4961686;28;45455;-86
2021/10/30 04:38:55;;;;;;;;;12.50;10.50;;;;;15.34;73.05;99815.50;4943984;28;45283;-86
2021/10/30 04:41:21;;;;;;;;;7.75;7.75;;;;;15.32;72.91;99814.78;4962199;28;45404;-85
2021/10/30 04:43:47;;;;;;;;;9.00;9.00;;;;;15.34;73.02;99809.34;4962823;28;45368;-85
2021/10/30 04:46:14;;;;;;;;;13.75;9.25;;;;;15.34;72.62;99814.66;4962022;28;45524;-83
2021/10/30 04:48:40;;;;;;;;;10.25;8.75;;;;;15.34;73.08;99810.22;4965743;28;45771;-82
2021/10/30 04:51:06;;;;;;;;;9.00;7.00;;;;;15.34;73.01;99819.94;4961610;28;45223;-87
2021/10/30 04:53:34;;;;;;;;;7.50;7.50;;;;;15.34;72.81;99804.06;4943856;28;46408;-88
2021/10/30 04:56:01;;;;;;;;;10.25;9.25;;;;;15.34;72.83;99804.91;4961862;28;45408;-89
2021/10/30 04:58:27;;;;;;;;;8.50;7.50;;;;;15.34;72.95;99801.41;4967868;28;45675;-88
2021/10/30 05:00:52;;;;;;;;;7.75;7.75;;;;;15.34;72.95;99796.13;4961358;28;45461;-92
2021/10/30 05:03:18;;;;;;;;;8.50;8.50;;;;;15.34;73.04;99796.13;4954910;28;45467;-89
2021/10/30 05:05:43;;;;;;;;;11.00;9.50;;;;;15.35;72.91;99789.88;4960281;28;45388;-87
2021/10/30 05:08:09;;;;;;;;;10.50;8.25;;;;;15.36;73.05;99791.59;4947294;28;45361;-81
2021/10/30 05:10:34;;;;;;;;;8.25;5.50;;;;;15.33;73.08;99787.34;4977908;28;45329;-81
2021/10/30 05:12:59;;;;;;;;;8.25;7.00;;;;;15.34;73.05;99786.38;4965932;28;45219;-81
2021/10/30 05:15:25;;;;;;;;;7.75;7.50;;;;;15.35;72.92;99785.44;4960740;28;45271;-81
2021/10/30 05:17:50;;;;;;;;;8.75;7.75;;;;;15.35;72.99;99774.00;4966369;28;45517;-80
2021/10/30 05:20:15;;;;;;;;;9.25;9.25;;;;;15.36;72.95;99787.13;4961202;28;45415;-80
2021/10/30 05:22:41;;;;;;;;;8.25;8.00;;;;;15.37;73.07;99782.69;4959762;28;45491;-80
2021/10/30 05:25:07;;;;;;;;;6.75;6.75;;;;;15.37;73.13;99783.53;4956360;28;46292;-80
2021/10/30 05:27:32;;;;;;;;;7.25;7.25;;;;;15.36;73.08;99783.66;4958505;28;46040;-81
2021/10/30 05:29:58;;;;;;;;;8.00;8.00;;;;;15.39;73.13;99778.13;4960967;28;45205;-81
2021/10/30 05:32:23;;;;;;;;;6.75;6.50;;;;;15.38;73.07;99785.22;4959984;28;45199;-81
2021/10/30 05:34:48;;;;;;;;;7.50;6.00;;;;;15.37;73.09;99780.88;4963018;28;45442;-82
2021/10/30 05:37:14;;;;;;;;;7.50;6.00;;;;;15.37;73.21;99780.88;4960004;28;45155;-81
2021/10/30 05:39:40;;;;;;;;;9.00;8.25;;;;;15.37;73.23;99767.66;4972998;28;45687;-82
2021/10/30 05:42:08;;;;;;;;;8.00;7.50;;;;;15.38;72.92;99774.63;4965658;28;45401;-82
2021/10/30 05:44:34;;;;;;;;;9.00;6.00;;;;;15.37;73.10;99772.09;4950514;28;47552;-83
2021/10/30 05:46:59;;;;;;;;;8.50;7.25;;;;;15.38;73.19;99765.84;4947413;28;45320;-82
2021/10/30 05:49:26;;;;;;;;;5.50;5.50;;;;;15.39;73.12;99762.25;4957939;28;45300;-82
2021/10/30 05:51:51;;;;;;;;;5.25;5.25;;;;;15.38;73.22;99768.50;4958638;28;45480;-83
2021/10/30 05:54:16;;;;;;;;;8.00;5.00;;;;;15.39;73.28;99764.88;4959703;28;46318;-83
2021/10/30 05:56:42;;;;;;;;;8.50;8.50;;;;;15.39;73.24;99765.75;4960028;28;46679;-81
2021/10/30 05:59:07;;;;;;;;;6.00;6.00;;;;;15.40;73.41;99762.16;4961661;28;45340;-80
2021/10/30 06:01:32;;;;;;;;;7.75;7.75;;;;;15.38;73.30;99753.44;4960203;28;45246;-80
2021/10/30 06:03:58;;;;;;;;;9.00;6.00;;;;;15.40;73.17;99756.84;4960030;28;45441;-80
2021/10/30 06:06:23;;;;;;;;;8.00;7.00;;;;;15.41;73.54;99762.97;4960469;28;45299;-81
2021/10/30 06:08:49;;;;;;;;;9.75;7.25;;;;;15.42;73.77;99754.09;4969742;28;45179;-82
2021/10/30 06:11:14;;;;;;;;;6.75;6.75;;;;;15.41;73.34;99753.22;4960469;28;45548;-82
2021/10/30 06:13:40;;;;;;;;;7.50;7.50;;;;;15.43;73.47;99747.84;4960297;28;45412;-80
2021/10/30 06:16:05;;;;;;;;;9.00;8.00;;;;;15.45;73.49;99756.53;4959361;28;45549;-81
2021/10/30 06:18:31;;;;;;;;;6.00;5.75;;;;;15.41;73.40;99755.03;4967914;28;45170;-84
2021/10/30 06:20:56;;;;;;;;;6.75;6.75;;;;;15.44;73.38;99761.91;4959839;28;45429;-85
2021/10/30 06:23:22;;;;;;;;;6.00;6.00;;;;;15.44;73.28;99757.47;4958822;28;45362;-85
2021/10/30 06:25:47;;;;;;;;;8.00;6.25;;;;;15.47;73.33;99767.00;4961083;28;45415;-85
2021/10/30 06:28:13;;;;;;;;;7.00;7.00;;;;;15.47;73.49;99762.56;4960246;28;45342;-85
2021/10/30 06:30:38;;;;;;;;;6.75;4.25;;;;;15.48;73.49;99764.25;4959923;28;45549;-84
2021/10/30 06:33:04;;;;;;;;;5.75;4.75;;;;;15.48;73.49;99758.94;4959646;28;45463;-82
2021/10/30 06:35:29;;;;;;;;;8.75;7.75;;;;;15.50;73.45;99761.50;4963026;28;45448;-83
2021/10/30 06:37:56;;;;;;;;;8.75;7.00;;;;;15.52;73.52;99763.09;4963564;28;45259;-84
2021/10/30 06:40:22;;;;;;;;;6.25;6.00;;;;;15.56;73.55;99760.22;4955798;28;45406;-84
2021/10/30 06:42:48;;;;;;;;;6.50;6.00;;;;;15.56;73.44;99762.84;4957447;28;46208;-84
2021/10/30 06:45:13;;;;;;;;;8.00;8.00;;;;;15.57;73.37;99762.78;4969715;28;45282;-86
2021/10/30 06:47:39;;;;;;;;;8.00;6.00;;;;;15.59;73.22;99760.00;4967877;28;45294;-86
2021/10/30 06:50:07;;;;;;;;;5.25;5.25;;;;;15.59;73.35;99760.00;4945745;28;46918;-86
2021/10/30 06:52:39;;;;;;;;;4.00;4.00;;;;;15.62;73.12;99762.44;4963108;28;46503;-86
2021/10/30 06:55:07;;;;;;;;;5.50;4.75;;;;;15.61;72.91;99763.38;4954019;28;45695;-87
2021/10/30 06:57:33;;;;;;;;;6.50;5.00;;;;;15.62;73.21;99762.44;4973429;28;45514;-87
2021/10/30 06:59:59;;;;;;;;;7.75;6.25;;;;;15.63;73.14;99748.25;4963007;28;45484;-86
2021/10/30 07:02:25;;;;;;;;;8.75;8.00;;;;;15.64;73.09;99747.28;4962706;28;45288;-84
2021/10/30 07:04:50;;;;;;;;;5.25;5.25;;;;;15.64;72.88;99747.28;4961867;28;45270;-87
2021/10/30 07:07:16;;;;;;;;;6.75;4.75;;;;;15.64;72.98;99742.00;4963279;28;45396;-84
2021/10/30 07:09:41;;;;;;;;;7.50;6.25;;;;;15.64;73.01;99737.53;4962826;28;45269;-85
2021/10/30 07:12:07;;;;;;;;;6.00;5.75;;;;;15.66;73.35;99742.72;4976731;28;47154;-84
2021/10/30 07:14:32;;;;;;;;;7.25;5.00;;;;;15.65;73.21;99738.41;4952083;28;45252;-83
2021/10/30 07:16:58;;;;;;;;;8.75;8.25;;;;;15.66;73.00;99739.22;4950794;28;45279;-84
2021/10/30 07:19:23;;;;;;;;;6.00;6.00;;;;;15.68;73.28;99742.63;4962566;28;45434;-84
2021/10/30 07:21:49;;;;;;;;;6.00;6.00;;;;;15.69;73.33;99739.00;4966862;28;46034;-84
2021/10/30 07:24:14;;;;;;;;;9.00;6.50;;;;;15.69;73.25;99734.56;4958532;28;45324;-83
2021/10/30 07:26:40;;;;;;;;;5.75;5.00;;;;;15.72;73.03;99739.66;4961946;28;45570;-83
2021/10/30 07:29:05;;;;;;;;;6.00;5.50;;;;;15.72;73.00;99737.00;4964837;28;45793;-82
2021/10/30 07:31:31;;;;;;;;;6.00;6.00;;;;;15.74;72.79;99742.19;4967655;28;46183;-83
2021/10/30 07:33:56;;;;;;;;;8.50;5.25;;;;;15.74;73.00;99737.75;4942573;28;45874;-84
2021/10/30 07:36:22;;;;;;;;;7.25;4.00;;;;;15.79;73.25;99733.91;4960351;28;46761;-83
2021/10/30 07:38:48;;;;;;;;;8.75;7.25;;;;;15.81;73.14;99732.00;4967461;28;45614;-82
2021/10/30 07:41:13;;;;;;;;;9.00;6.75;;;;;15.82;73.20;99755.75;4969896;28;45556;-82
2021/10/30 07:43:38;;;;;;;;;5.00;5.00;;;;;15.83;73.03;99751.28;4963562;28;45599;-83
2021/10/30 07:46:04;;;;;;;;;7.50;5.00;;;;;15.85;72.92;99754.69;4968770;28;45479;-82
2021/10/30 07:48:29;;;;;;;;;8.00;6.25;;;;;15.88;72.84;99758.91;4960753;28;45266;-85
2021/10/30 07:50:55;;;;;;;;;7.75;7.75;;;;;15.90;73.05;99757.81;4966667;28;45304;-81
2021/10/30 07:53:20;;;;;;;;;6.00;5.00;;;;;15.91;73.23;99762.19;4968763;28;45522;-81
2021/10/30 07:55:48;;;;;;;;;4.00;4.00;;;;;15.94;73.04;99759.31;4970388;28;45381;-86
2021/10/30 07:58:14;;;;;;;;;4.00;3.25;;;;;15.97;72.86;99764.41;4968072;28;45508;-84
2021/10/30 08:00:39;;;;;;;;;6.75;4.00;;;;;16.00;73.01;99771.25;4961007;28;45278;-85
2021/10/30 08:03:05;;;;;;;;;4.75;4.75;;;;;16.02;72.85;99776.47;4972076;28;45698;-80
2021/10/30 08:05:30;;;;;;;;;6.50;4.75;;;;;16.01;72.87;99782.72;4947790;28;45568;-81
2021/10/30 08:07:55;;;;;;;;;5.00;4.50;;;;;16.02;72.91;99777.31;4969613;28;45517;-80
2021/10/30 08:10:23;;;;;;;;;5.00;4.00;;;;;16.03;72.81;99789.59;4961356;28;45535;-80
2021/10/30 08:12:49;;;;;;;;;4.00;4.00;;;;;16.04;72.67;99783.38;4966436;28;45240;-80
2021/10/30 08:15:14;;;;;;;;;4.75;4.75;;;;;16.04;73.15;99787.81;4971337;28;45281;-80
2021/10/30 08:17:39;;;;;;;;;5.50;5.50;;;;;16.07;73.05;99799.06;4963750;28;45596;-80
2021/10/30 08:20:06;;;;;;;;;5.75;5.25;;;;;16.08;73.08;99803.41;4962054;28;45452;-81
2021/10/30 08:22:31;;;;;;;;;6.50;4.50;;;;;16.12;72.65;99804.06;4962036;28;46802;-82
2021/10/30 08:24:58;;;;;;;;;6.00;4.00;;;;;16.13;73.01;99803.06;4968403;28;45214;-81
2021/10/30 08:27:23;;;;;;;;;5.00;5.00;;;;;16.14;72.67;99802.13;4961746;28;45231;-80
2021/10/30 08:29:49;;;;;;;;;7.25;4.75;;;;;16.17;72.97;99806.38;4960930;28;47001;-79
2021/10/30 08:32:14;;;;;;;;;7.50;4.75;;;;;16.18;72.69;99797.44;4932746;28;45816;-79
2021/10/30 08:34:40;;;;;;;;;3.25;3.25;;;;;16.22;72.73;99800.72;4965273;28;45435;-79
2021/10/30 08:37:05;;;;;;;;;5.50;4.00;;;;;16.23;72.80;99797.09;4961280;28;45346;-79
2021/10/30 08:39:31;;;;;;;;;6.25;5.75;;;;;16.25;72.57;99803.16;4961328;28;47497;-78
2021/10/30 08:41:56;;;;;;;;;6.00;4.00;;;;;16.28;72.68;99800.28;4970806;28;45459;-79
2021/10/30 08:44:23;;;;;;;;;5.00;4.25;;;;;16.28;73.02;99792.31;4961007;28;45369;-79
2021/10/30 08:46:52;;;;;;;;;6.50;6.25;;;;;16.31;72.99;99797.41;4961368;28;45401;-78
2021/10/30 08:49:19;;;;;;;;;6.00;6.00;;;;;16.35;72.98;99798.00;4959561;28;45727;-79
2021/10/30 08:51:44;;;;;;;;;5.75;4.50;;;;;16.37;72.73;99801.44;4961185;28;45246;-79
2021/10/30 08:54:13;;;;;;;;;5.25;4.00;;;;;16.40;72.42;99803.84;4961524;28;45340;-79
2021/10/30 08:56:39;;;;;;;;;6.00;5.50;;;;;16.44;72.54;99807.97;4976030;28;45511;-79
2021/10/30 08:59:06;;;;;;;;;6.00;6.00;;;;;16.44;72.82;99804.47;4959967;28;45341;-78
2021/10/30 09:01:43;;;;;;;;;8.50;5.00;;;;;16.48;72.81;99805.94;4963036;28;46935;-77
2021/10/30 09:04:12;;;;;;;;;4.50;4.50;;;;;16.48;72.75;99808.59;4959760;28;45205;-77
2021/10/30 09:06:43;;;;;;;;;5.50;5.50;;;;;16.53;72.51;99814.41;4961025;28;45924;-76
2021/10/30 09:09:16;;;;;;;;;4.25;3.00;;;;;16.52;72.44;99807.38;4960168;28;46322;-78
2021/10/30 09:11:52;;;;;;;;;7.25;6.00;;;;;16.52;72.80;99804.75;4972169;28;45313;-78
2021/10/30 09:14:26;;;;;;;;;4.00;4.00;;;;;16.54;72.50;99808.16;4946445;28;45718;-78
2021/10/30 09:17:17;;;;;;;;;6.00;6.00;;;;;16.56;72.82;99802.72;4954952;28;45513;-79
2021/10/30 09:19:51;;;;;;;;;4.25;4.25;;;;;16.53;72.94;99796.69;4961442;28;45500;-78
2021/10/30 09:22:19;;;;;;;;;5.25;5.25;;;;;16.56;73.01;99805.38;4959486;28;45547;-79
2021/10/30 09:25:04;;;;;;;;;4.25;4.25;;;;;16.57;73.06;99805.25;4960209;28;45341;-78
2021/10/30 09:27:49;;;;;;;;;6.75;5.25;;;;;16.60;72.99;99810.34;4956904;28;45425;-78
2021/10/30 09:30:26;;;;;;;;;6.25;5.00;;;;;16.60;72.57;99809.47;4954431;28;46189;-78
2021/10/30 09:33:01;;;;;;;;;6.50;6.25;;;;;16.61;72.76;99809.38;4942302;28;45399;-78
2021/10/30 09:35:28;;;;;;;;;6.75;6.75;;;;;16.61;72.49;99803.22;4959165;28;45378;-78
2021/10/30 09:37:54;;;;;;;;;5.50;5.50;;;;;16.61;72.62;99806.75;4966518;28;45612;-79
2021/10/30 09:40:25;;;;;;;;;6.75;5.00;;;;;16.63;72.84;99809.25;4959167;28;45465;-78
2021/10/30 09:43:08;;;;;;;;;7.50;6.00;;;;;16.62;72.93;99799.59;4957660;28;45296;-78
2021/10/30 09:45:36;;;;;;;;;5.75;5.00;;;;;16.64;72.77;99803.84;4959210;28;45339;-78
2021/10/30 09:48:02;;;;;;;;;5.00;4.75;;;;;16.64;72.58;99806.50;4955840;28;45481;-79
2021/10/30 09:50:30;;;;;;;;;8.00;4.50;;;;;16.65;72.76;99805.53;4959569;28;45295;-79
2021/10/30 09:52:56;;;;;;;;;6.25;4.25;;;;;16.68;72.76;99811.56;4959182;28;45444;-78
2021/10/30 09:55:23;;;;;;;;;9.75;9.25;;;;;16.68;73.06;99804.47;4959760;28;45599;-79
2021/10/30 09:57:57;;;;;;;;;8.50;7.00;;;;;16.69;72.46;99808.81;4959412;28;45492;-78
2021/10/30 10:00:24;;;;;;;;;7.75;7.00;;;;;16.72;72.27;99813.88;4958691;28;45467;-79
2021/10/30 10:02:54;;;;;;;;;7.25;7.25;;;;;16.71;72.77;99803.41;4958276;28;45424;-79
2021/10/30 10:05:20;;;;;;;;;11.75;9.00;;;;;16.74;72.54;99808.47;4959735;28;45263;-78
2021/10/30 10:07:49;;;;;;;;;11.50;6.25;;;;;16.72;72.89;99799.78;4957601;28;45417;-79
2021/10/30 10:10:15;;;;;;;;;8.00;7.00;;;;;16.76;72.37;99811.88;4959037;28;45905;-78
2021/10/30 10:12:42;;;;;;;;;5.50;5.50;;;;;16.76;72.71;99806.56;4961820;28;45732;-78
2021/10/30 10:15:08;;;;;;;;;6.75;6.75;;;;;16.75;72.32;99824.28;4966001;28;45532;-79
2021/10/30 10:17:34;;;;;;;;;5.50;5.50;;;;;16.75;72.08;99820.78;4971598;28;45312;-79
2021/10/30 10:19:59;;;;;;;;;8.00;6.00;;;;;16.75;72.66;99829.59;4963545;28;46269;-79
2021/10/30 10:22:26;;;;;;;;;6.00;6.00;;;;;16.75;72.29;99818.97;4961628;28;45411;-79
2021/10/30 10:24:51;;;;;;;;;3.75;3.75;;;;;16.75;72.51;99816.31;4953853;28;45759;-79
2021/10/30 10:27:18;;;;;;;;;6.50;4.25;;;;;16.78;72.30;99825.84;4961320;28;45325;-79
2021/10/30 10:29:54;;;;;;;;;4.50;4.00;;;;;16.79;72.42;99830.19;4962812;28;45744;-79
2021/10/30 10:32:25;;;;;;;;;4.00;4.00;;;;;16.80;72.00;99839.84;4961655;28;45364;-79
2021/10/30 10:34:51;;;;;;;;;4.50;4.50;;;;;16.82;72.32;99840.59;4961525;28;45306;-79
2021/10/30 10:37:23;;;;;;;;;7.25;6.00;;;;;16.83;72.37;99838.78;4969522;28;45519;-78
2021/10/30 10:39:54;;;;;;;;;5.00;5.00;;;;;16.86;72.45;99839.41;4966501;28;46295;-78
2021/10/30 10:42:43;;;;;;;;;7.50;5.50;;;;;16.86;72.10;99842.06;4962609;28;45326;-78
2021/10/30 10:45:11;;;;;;;;;4.50;4.00;;;;;16.87;72.49;99840.25;4954614;28;45286;-79
2021/10/30 10:47:39;;;;;;;;;5.00;5.00;;;;;16.92;72.03;99837.25;4975970;28;45313;-79
2021/10/30 10:50:16;;;;;;;;;5.25;5.00;;;;;16.92;72.86;99831.94;4968880;28;46332;-79
2021/10/30 10:53:04;;;;;;;;;6.75;4.00;;;;;16.97;72.32;99837.75;4963303;28;45492;-79
2021/10/30 10:55:33;;;;;;;;;4.75;4.25;;;;;16.98;72.30;99836.81;4953705;28;45926;-79
2021/10/30 10:58:00;;;;;;;;;5.50;5.50;;;;;17.01;72.17;99833.94;4954120;28;45753;-79
2021/10/30 11:00:26;;;;;;;;;7.00;5.00;;;;;17.07;71.85;99838.75;4958101;28;45473;-79
2021/10/30 11:02:53;;;;;;;;;5.00;5.00;;;;;17.08;72.17;99832.50;4960104;28;45488;-79
2021/10/30 11:05:22;;;;;;;;;5.75;5.00;;;;;17.12;72.17;99832.25;4962924;28;45269;-79
2021/10/30 11:07:50;;;;;;;;;5.75;5.75;;;;;17.14;72.01;99838.28;4962482;28;45430;-79
2021/10/30 11:10:19;;;;;;;;;6.50;6.50;;;;;17.15;72.10;99837.34;4960053;28;45306;-79
2021/10/30 11:15:27;;;;;;;;;5.00;5.00;;;;;17.17;71.86;99832.78;4962857;28;45472;-79
2021/10/30 11:18:09;;;;;;;;;5.75;5.75;;;;;17.20;72.04;99832.56;4960829;28;45485;-79
2021/10/30 11:20:40;;;;;;;;;7.00;7.00;;;;;17.18;72.04;99831.84;4953683;28;45532;-79
2021/10/30 11:23:11;;;;;;;;;6.75;5.25;;;;;17.23;71.50;99826.16;4960568;28;45392;-79
2021/10/30 11:25:36;;;;;;;;;6.00;6.00;;;;;17.23;72.29;99823.50;4960811;28;45588;-79
2021/10/30 11:28:02;;;;;;;;;5.00;5.00;;;;;17.29;71.92;99823.03;4959378;28;45963;-79